首页
METAR-TAF:

METAR-TAF

机场 :

鳥取機場

鳥取, 日本

纬度: 35-32N, 经度: 134-10E, 海拔: 15米

当前天气观测

该预报发布于21分钟前的01:00 UTC
风速3节,风向南转南东
温度 18°C
湿度 83%
气压 1018 hPa
能见度10公里或以上
少量云层高于2000英尺
散云层高于4000英尺
多云层高于6000英尺

METAR: RJOR 240100Z 15003KT 9999 FEW020 SCT040 BKN060 18/15 Q1018

时间: 10:21 (01:21 UTC)


TAF: 丢失

超过4000个机场的气象观测和天气预报(METAR&TAF报告)。

可查询的气象台以黄色和红色小点在地图上表示。

将鼠标移到小点上方,可查看气象台名称。

然后点击查看天气观测和预报。

如需切换地图:点击带黑十字的绿色按钮放大地图;点击带横线的绿色按钮缩小地图;或者点击绿色箭头查看邻近地区的地图。


METAR-TAF: